Ovda, Israel
Current Conditions -  °F | °C
As of 1:00 PM on Saturday 25 Oct 2014 (Local Time) from OJAQ Reporting Station
Clear Clear  
Wind Chill: 82°   Ceiling: Unl
Heat Index: 82°   Visibility: 6mi
Dew Point: 48°   Wind: 8mph
Humidity: 30%   Direction: 10°N
Pressure: 29.94"   Gusts: NA
Location:  30°N, 34.83°E
Report Text: OJAQ 251000Z 01007KT CAVOK 28/09 Q1014 NOSIG
Loading
Personal Weather Stations






























Interactive Weather Map
Tropical Storm Tracking
New forecast layout! Learn more

10-Day Weather Forecast

Advertisements
Track Severe Weather on mobile